ウランバートル の空港の天気 - METARとTAF

チンギスハーン国際空港 ( ZMUB / ULN ) - モンゴル ウランバートル
飛行場実況気象(Metar)
観測時間09/28 08:00 ULAT (09/28 00:00 UTC)
風向・風速静穏 0m/s
視程10km以上
天気現象
全天の4割程度の雲 雲底高度 3050m
気温5℃
湿度65%
気圧1004hPa
METARZMUB 280000Z 00000MPS 9999 SCT100 05/M01 Q1004 NOSIG RMK QFE647.2 68 MOP
過去の天気等 Google飛行場航空写真 Wunderground天気予報

過去48時間のMETAR

飛行場予報(TAF)
発表時間: 9/28 06:40 ULAT (9/27 22:40 UTC)
予報対象時間: 28日8時 ULAT ~ 29日14時 ULAT
風向・風速不定 2m/s
視程10km以上
全天の4割程度の雲 雲底高度 1010m
全天の4割程度の雲 雲底高度 3050m
28日13時 ULAT ~ 28日15時 ULAT に徐々に
風向・風速西北西 7m/s
28日19時 ULAT ~ 28日21時 ULAT に徐々に
風向・風速不定 2m/s
29日11時 ULAT ~ 29日13時 ULAT に徐々に
風向・風速南南東 5m/s
少しの積乱雲 雲底高度 910m
全天の8割程度の雲 雲底高度 1010m
TAF ZMUB 272240Z 2800/2906 VRB02MPS 9999 SCT033 SCT100 TX18/2807Z TNM01/2821Z
BECMG 2805/2807 29007MPS
BECMG 2811/2813 VRB02MPS
BECMG 2903/2905 15005MPS FEW030CB BKN033